Time;durP1;ratioP1;P1;durP2;ratioP2;P2;SDS_P1;SDS_P2;PMS_P1;PMS_P2;Temp;Humidity;BMP_temperature;BMP_pressure;BME280_temperature;BME280_humidity;BME280_pressure;Samples;Min_cycle;Max_cycle;Signal;HPM_P1;HPM_P2
2021/12/27 00:01:46;;;;;;;18.17;6.20;;;10.50;99.90;;;9.83;100.00;99391.44;4156759;28;20292;-64
2021/12/27 00:03:49;;;;;;;11.63;3.95;;;10.60;99.90;;;9.82;100.00;99401.19;4162797;28;20056;-65
2021/12/27 00:05:50;;;;;;;24.23;5.60;;;10.50;99.90;;;9.83;100.00;99396.72;4153714;28;20022;-64
2021/12/27 00:07:53;;;;;;;14.93;6.25;;;10.50;99.90;;;9.93;100.00;99392.00;4152634;28;20315;-64
2021/12/27 00:09:54;;;;;;;18.10;6.43;;;10.50;99.90;;;9.82;100.00;99380.13;4168155;28;20105;-64
2021/12/27 00:11:55;;;;;;;15.10;6.25;;;10.50;99.90;;;9.85;100.00;99390.28;4179689;28;20018;-64
2021/12/27 00:13:56;;;;;;;18.67;5.05;;;10.60;99.90;;;9.81;100.00;99388.19;4153773;28;20504;-64
2021/12/27 00:15:57;;;;;;;15.88;4.93;;;10.50;99.90;;;9.78;100.00;99384.13;4153681;28;20030;-64
2021/12/27 00:17:58;;;;;;;14.65;4.63;;;10.40;99.90;;;9.77;100.00;99379.84;4153292;28;20034;-64
2021/12/27 00:19:59;;;;;;;20.50;4.97;;;10.50;99.90;;;9.77;100.00;99377.19;4157627;28;20025;-64
2021/12/27 00:22:00;;;;;;;17.30;4.80;;;10.50;99.90;;;9.63;100.00;99378.03;4169861;28;20555;-64
2021/12/27 00:24:01;;;;;;;21.33;5.15;;;10.40;99.90;;;9.62;100.00;99372.94;4158290;28;20079;-64
2021/12/27 00:26:02;;;;;;;13.43;3.72;;;10.40;99.90;;;9.65;100.00;99375.22;4153394;28;20034;-64
2021/12/27 00:28:03;;;;;;;12.65;5.30;;;10.40;99.90;;;9.62;100.00;99378.22;4141131;28;20022;-64
2021/12/27 00:30:07;;;;;;;8.95;3.70;;;10.30;99.90;;;9.66;100.00;99380.31;4168605;28;20033;-64
2021/12/27 00:32:08;;;;;;;11.95;4.40;;;10.30;99.90;;;9.68;100.00;99372.22;4158001;28;20509;-64
2021/12/27 00:34:09;;;;;;;13.05;4.93;;;11.10;99.90;;;9.68;100.00;99366.94;4166839;28;20030;-64
2021/12/27 00:36:10;;;;;;;21.13;5.18;;;10.30;99.90;;;9.67;100.00;99349.53;4168630;28;20472;-64
2021/12/27 00:38:11;;;;;;;10.02;3.42;;;9.30;99.90;;;9.71;100.00;99356.06;4168554;28;20060;-64
2021/12/27 00:40:14;;;;;;;19.08;5.20;;;10.30;99.90;;;9.71;100.00;99351.59;4168394;28;20485;-64
2021/12/27 00:42:15;;;;;;;17.42;4.70;;;10.30;99.90;;;9.75;100.00;99346.78;4168385;28;20547;-64
2021/12/27 00:44:16;;;;;;;21.92;4.85;;;10.40;99.90;;;9.71;100.00;99333.19;4168537;28;20112;-64
2021/12/27 00:46:17;;;;;;;12.18;3.92;;;10.40;99.90;;;9.71;100.00;99334.97;4161123;28;20037;-64
2021/12/27 00:48:18;;;;;;;8.85;3.55;;;10.30;99.90;;;9.79;100.00;99327.00;4152935;28;20129;-64
2021/12/27 00:50:19;;;;;;;14.10;3.97;;;10.50;99.90;;;9.82;100.00;99324.81;4168107;28;20116;-64
2021/12/27 00:52:20;;;;;;;10.43;2.90;;;10.00;99.90;;;9.71;100.00;99306.84;4153168;28;20089;-64
2021/12/27 00:54:21;;;;;;;14.25;3.40;;;10.40;99.90;;;9.76;100.00;99306.31;4159605;28;20025;-64
2021/12/27 00:56:22;;;;;;;12.05;3.95;;;10.40;99.90;;;9.72;100.00;99290.06;4168153;28;20096;-64
2021/12/27 00:58:23;;;;;;;17.92;3.72;;;10.40;99.90;;;9.74;100.00;99284.59;4168116;28;20041;-64
2021/12/27 01:00:25;;;;;;;13.38;3.72;;;10.40;99.90;;;9.80;100.00;99274.13;4164737;28;20042;-64
2021/12/27 01:02:30;;;;;;;15.07;3.50;;;10.40;99.90;;;9.83;100.00;99259.78;4152864;28;20398;-64
2021/12/27 01:04:30;;;;;;;;;;;10.40;99.90;;;9.77;100.00;99258.69;4153153;28;20103;-64
2021/12/27 01:06:32;;;;;;;17.80;4.85;;;10.40;99.90;;;9.75;100.00;99252.81;4165076;28;19999;-64
2021/12/27 01:08:33;;;;;;;7.93;2.60;;;10.40;99.90;;;9.72;100.00;99245.28;4156135;28;20037;-64
2021/12/27 01:17:15;;;;;;;8.07;3.08;;;10.50;99.90;;;9.81;100.00;99223.09;4158829;28;20056;-64
2021/12/27 01:19:15;;;;;;;14.25;3.20;;;10.50;99.90;;;9.80;100.00;99224.09;4164680;28;20029;-64
2021/12/27 01:21:21;;;;;;;13.43;3.90;;;10.40;99.90;;;9.74;100.00;99219.56;4151217;28;20121;-64
2021/12/27 01:23:22;;;;;;;9.52;2.58;;;10.40;99.90;;;9.79;100.00;99227.75;4167891;28;20107;-64
2021/12/27 01:25:24;;;;;;;13.55;3.33;;;10.40;99.90;;;9.78;100.00;99231.38;4167714;28;20061;-64
2021/12/27 01:27:25;;;;;;;9.57;3.67;;;10.90;99.90;;;9.78;100.00;99227.91;4156360;28;20029;-64
2021/12/27 01:29:26;;;;;;;14.15;3.30;;;10.50;99.90;;;9.86;100.00;99227.78;4167181;28;20420;-64
2021/12/27 01:31:28;;;;;;;10.77;3.13;;;10.40;99.90;;;9.75;100.00;99217.75;4167680;28;20061;-64
2021/12/27 01:33:31;;;;;;;17.15;4.00;;;10.40;99.90;;;9.78;100.00;99205.03;4167326;28;20029;-64
2021/12/27 01:35:34;;;;;;;17.55;3.22;;;10.60;99.90;;;9.75;100.00;99189.63;4167765;28;20026;-64
2021/12/27 01:37:35;;;;;;;10.43;3.15;;;10.50;99.90;;;9.84;100.00;99170.06;4152674;28;20374;-64
2021/12/27 01:39:36;;;;;;;12.15;3.60;;;10.50;99.90;;;9.84;100.00;99141.09;4152385;28;20022;-64
2021/12/27 01:41:40;;;;;;;9.05;4.20;;;10.50;99.90;;;9.87;100.00;99122.28;4160349;28;20060;-64
2021/12/27 01:43:42;;;;;;;11.50;4.07;;;10.50;99.90;;;9.89;100.00;99133.41;4167501;28;20104;-64
2021/12/27 01:45:56;;;;;;;15.43;4.43;;;10.60;99.90;;;9.95;100.00;99123.94;4167453;28;20056;-64
2021/12/27 01:47:57;;;;;;;16.20;4.25;;;10.50;99.90;;;9.86;100.00;99119.81;4167309;28;20026;-64
2021/12/27 01:49:58;;;;;;;13.52;4.03;;;10.50;99.90;;;9.81;100.00;99104.59;4167450;28;20463;-64
2021/12/27 01:51:59;;;;;;;12.70;3.58;;;10.60;99.90;;;9.80;100.00;99108.22;4150315;28;20053;-64
2021/12/27 01:54:00;;;;;;;13.32;4.22;;;10.60;99.90;;;9.87;100.00;99114.38;4167485;28;20537;-64
2021/12/27 01:56:03;;;;;;;15.80;3.65;;;10.60;99.90;;;9.94;100.00;99117.88;4160836;28;20032;-64
2021/12/27 01:58:04;;;;;;;14.48;3.67;;;10.60;99.90;;;9.95;100.00;99121.31;4152053;28;20121;-64
2021/12/27 02:00:07;;;;;;;10.13;5.07;;;10.60;99.90;;;9.90;100.00;99121.88;4164976;28;20592;-64
2021/12/27 02:02:08;;;;;;;13.75;3.58;;;10.60;99.90;;;9.87;100.00;99130.16;4167251;28;20025;-64
2021/12/27 02:04:09;;;;;;;13.25;3.58;;;10.70;99.90;;;9.90;100.00;99145.59;4160285;28;20048;-64
2021/12/27 02:06:13;;;;;;;12.05;4.38;;;10.60;99.90;;;10.06;100.00;99152.41;4150805;28;20045;-64
2021/12/27 02:08:14;;;;;;;8.93;3.30;;;10.70;99.90;;;10.02;100.00;99145.88;4167078;28;20021;-64
2021/12/27 02:10:15;;;;;;;12.60;3.45;;;10.70;99.90;;;9.98;100.00;99142.00;4168392;28;20049;-64
2021/12/27 02:12:16;;;;;;;12.77;3.75;;;10.70;99.90;;;9.96;100.00;99141.38;4158622;28;20109;-64
2021/12/27 02:14:17;;;;;;;15.38;4.15;;;10.70;99.90;;;10.00;100.00;99142.63;4163619;28;20021;-64
2021/12/27 02:16:21;;;;;;;27.48;5.80;;;10.70;99.90;;;10.01;100.00;99134.53;4168153;28;20053;-64
2021/12/27 02:18:22;;;;;;;13.35;4.78;;;10.70;99.90;;;9.99;100.00;99133.09;4161785;28;20109;-64
2021/12/27 02:20:27;;;;;;;14.65;4.88;;;10.70;99.90;;;10.06;100.00;99130.50;4160556;28;20037;-64
2021/12/27 02:22:33;;;;;;;17.13;5.30;;;10.70;99.90;;;10.06;100.00;99127.88;4166941;28;20544;-64
2021/12/27 02:24:34;;;;;;;15.75;4.20;;;10.70;99.90;;;9.94;100.00;99136.31;4150911;28;20026;-64
2021/12/27 02:26:35;;;;;;;14.48;3.45;;;10.70;99.90;;;9.98;100.00;99142.81;4157189;28;20040;-64
2021/12/27 02:28:37;;;;;;;11.68;3.33;;;10.70;99.90;;;10.16;100.00;99131.81;4168451;28;20049;-64
2021/12/27 02:30:41;;;;;;;16.80;3.88;;;10.70;99.90;;;10.08;100.00;99124.03;4154280;28;20022;-64
2021/12/27 02:33:05;;;;;;;15.23;4.00;;;10.80;99.90;;;10.09;100.00;99135.41;4150682;28;20030;-64
2021/12/27 02:35:06;;;;;;;17.87;4.67;;;10.80;99.90;;;10.16;100.00;99136.28;4161659;28;20484;-64
2021/12/27 02:37:07;;;;;;;20.40;6.10;;;10.80;99.90;;;10.11;100.00;99110.50;4168336;28;20053;-64
2021/12/27 02:39:08;;;;;;;15.18;5.15;;;10.80;99.90;;;10.00;100.00;99116.28;4168270;28;20035;-64
2021/12/27 02:41:11;;;;;;;10.80;3.95;;;10.70;99.90;;;10.06;100.00;99099.72;4161003;28;20520;-64
2021/12/27 02:43:15;;;;;;;11.95;4.63;;;10.50;99.90;;;10.07;100.00;99092.59;4150750;28;20467;-64
2021/12/27 02:45:16;;;;;;;8.52;4.45;;;10.80;99.90;;;10.08;100.00;99079.25;4165018;28;20108;-64
2021/12/27 02:47:17;;;;;;;10.23;4.15;;;10.80;99.90;;;10.01;100.00;99076.56;4163245;28;20508;-64
2021/12/27 02:49:18;;;;;;;10.82;3.88;;;10.80;99.90;;;10.09;100.00;99074.81;4158121;28;20484;-64
2021/12/27 02:51:20;;;;;;;21.05;4.45;;;10.80;99.90;;;10.08;100.00;99066.09;4168166;28;20104;-64
2021/12/27 02:53:23;;;;;;;7.57;3.65;;;10.80;99.90;;;10.06;100.00;99043.59;4153862;28;20095;-64
2021/12/27 02:55:24;;;;;;;8.85;3.55;;;10.80;99.90;;;10.09;100.00;99032.66;4153996;28;20044;-64
2021/12/27 02:57:24;;;;;;;5.70;3.08;;;10.80;99.90;;;10.11;100.00;99036.72;4167011;28;20575;-64
2021/12/27 02:59:25;;;;;;;7.65;3.17;;;10.80;99.90;;;10.13;100.00;99029.47;4166783;28;20059;-64
2021/12/27 03:01:28;;;;;;;6.95;3.63;;;10.80;99.90;;;10.09;100.00;99016.84;4151739;28;20061;-64
2021/12/27 03:03:29;;;;;;;11.88;4.03;;;10.80;99.90;;;10.10;100.00;99014.00;4154960;28;20037;-64
2021/12/27 03:05:32;;;;;;;8.32;3.88;;;10.20;99.90;;;10.11;100.00;99020.91;4169024;28;20464;-64
2021/12/27 03:07:33;;;;;;;5.20;3.42;;;10.80;99.90;;;10.14;100.00;99014.47;4171203;28;20065;-64
2021/12/27 03:09:34;;;;;;;13.30;3.22;;;11.20;99.90;;;10.10;100.00;99007.91;4171277;28;20026;-64
2021/12/27 03:11:35;;;;;;;7.22;4.25;;;10.80;99.90;;;9.98;100.00;99005.84;4170973;28;20087;-64
2021/12/27 03:13:40;;;;;;;10.48;3.80;;;10.80;99.90;;;10.07;100.00;99010.94;4171195;28;20022;-64
2021/12/27 03:15:41;;;;;;;6.53;3.33;;;10.70;99.90;;;10.01;100.00;98997.56;4160389;28;20446;-64
2021/12/27 03:17:45;;;;;;;7.30;3.15;;;11.10;99.90;;;9.95;100.00;98994.88;4167155;28;20044;-64
2021/12/27 03:19:46;;;;;;;;;;;10.80;99.90;;;10.02;100.00;98988.66;4153982;28;20106;-64
2021/12/27 03:21:47;;;;;;;6.07;3.00;;;10.80;99.90;;;10.00;100.00;98984.59;4171073;28;19916;-64
2021/12/27 03:23:49;;;;;;;7.45;2.70;;;10.70;99.90;;;9.99;100.00;98981.13;4160979;28;20026;-64
2021/12/27 03:25:52;;;;;;;6.90;2.72;;;10.70;99.90;;;10.09;100.00;98979.97;4166571;28;20033;-64
2021/12/27 03:27:53;;;;;;;16.30;6.95;;;10.80;99.90;;;9.98;100.00;98979.50;4169803;28;20081;-64
2021/12/27 03:29:54;;;;;;;15.05;4.53;;;10.70;99.90;;;10.00;100.00;98977.47;4169630;28;20080;-64
2021/12/27 03:31:57;;;;;;;6.88;3.20;;;10.80;99.90;;;10.00;100.00;98980.09;4169592;28;20045;-64
2021/12/27 03:33:59;;;;;;;7.55;4.75;;;10.70;99.90;;;10.04;100.00;98980.53;4156980;28;20481;-64
2021/12/27 03:36:03;;;;;;;7.88;2.97;;;10.80;99.90;;;9.97;100.00;98982.34;4154446;28;20022;-64
2021/12/27 03:38:11;;;;;;;6.35;3.10;;;10.70;99.90;;;9.90;100.00;98963.88;4154377;28;20038;-64
2021/12/27 03:40:15;;;;;;;6.63;2.65;;;10.70;99.90;;;9.96;100.00;98960.47;4154308;28;20033;-65
2021/12/27 03:42:17;;;;;;;7.20;3.28;;;10.70;99.90;;;9.93;100.00;98954.75;4168267;28;20069;-64
2021/12/27 03:44:18;;;;;;;5.50;3.05;;;10.80;99.90;;;9.96;100.00;98952.56;4152865;28;20030;-64
2021/12/27 03:46:19;;;;;;;6.93;3.38;;;10.80;99.90;;;10.05;100.00;98953.19;4169332;28;20450;-64
2021/12/27 03:48:20;;;;;;;5.03;2.85;;;10.70;99.90;;;10.02;100.00;98951.78;4152765;28;20057;-64
2021/12/27 03:50:24;;;;;;;5.22;2.78;;;10.70;99.90;;;10.02;100.00;98953.59;4154107;28;20045;-64
2021/12/27 03:52:25;;;;;;;;;;;10.80;99.90;;;9.96;100.00;98946.47;4153479;28;20084;-64
2021/12/27 03:54:26;;;;;;;4.88;2.28;;;10.70;99.90;;;9.99;100.00;98946.06;4161309;28;19913;-64
2021/12/27 03:56:27;;;;;;;3.17;2.10;;;10.70;99.90;;;9.97;100.00;98929.66;4157418;28;20046;-64
2021/12/27 03:58:33;;;;;;;3.88;2.35;;;10.80;99.90;;;9.99;100.00;98938.16;4168842;28;20057;-64
2021/12/27 04:02:47;;;;;;;4.82;2.38;;;10.70;99.90;;;10.09;100.00;98932.53;4162987;28;20088;-64
2021/12/27 04:04:47;;;;;;;2.92;2.38;;;10.80;99.90;;;10.12;100.00;98940.06;4155257;28;20513;-64
2021/12/27 04:06:48;;;;;;;2.58;1.70;;;10.70;99.90;;;10.08;100.00;98923.81;4170269;28;20112;-64
2021/12/27 04:08:49;;;;;;;2.67;1.50;;;12.00;99.90;;;10.15;100.00;98926.53;4170255;28;20371;-64
2021/12/27 04:10:51;;;;;;;5.07;1.85;;;10.80;99.90;;;10.09;100.00;98940.44;4170186;28;20071;-64
2021/12/27 04:12:51;;;;;;;7.43;2.00;;;10.90;99.90;;;10.32;100.00;98935.69;4170159;28;20511;-64
2021/12/27 04:14:53;;;;;;;7.07;1.80;;;10.90;99.90;;;10.30;100.00;98921.91;4169757;28;20026;-64
2021/12/27 04:16:55;;;;;;;8.75;2.33;;;11.00;99.90;;;10.43;100.00;98938.56;4162932;28;20489;-64
2021/12/27 04:18:56;;;;;;;7.70;2.00;;;11.10;99.90;;;10.44;100.00;98936.75;4161556;28;20033;-64
2021/12/27 04:20:57;;;;;;;10.15;2.20;;;11.20;99.90;;;10.50;100.00;98936.75;4168748;28;20033;-64
2021/12/27 04:22:58;;;;;;;17.13;2.92;;;11.50;99.90;;;10.60;100.00;98935.56;4154018;28;20037;-64
2021/12/27 04:25:00;;;;;;;13.13;3.88;;;11.50;99.90;;;10.58;100.00;98927.84;4157793;28;20052;-64
2021/12/27 04:27:01;;;;;;;23.35;4.68;;;11.30;99.90;;;10.78;100.00;98931.31;4168572;28;20428;-64
2021/12/27 04:29:03;;;;;;;29.25;5.85;;;11.50;99.90;;;10.89;100.00;98938.66;4168662;28;20025;-64
2021/12/27 04:31:04;;;;;;;20.48;4.90;;;11.50;99.90;;;10.90;100.00;98939.47;4168547;28;20017;-64
2021/12/27 04:33:06;;;;;;;38.65;6.25;;;11.60;99.90;;;10.95;100.00;98947.59;4146388;28;20081;-64
2021/12/27 04:35:08;;;;;;;40.08;7.45;;;11.70;99.90;;;11.10;100.00;98937.66;4153480;28;20029;-64
2021/12/27 04:37:09;;;;;;;33.40;5.72;;;11.80;99.90;;;11.16;100.00;98947.38;4164589;28;20112;-64
2021/12/27 04:39:10;;;;;;;47.97;10.52;;;11.90;99.90;;;11.27;100.00;98949.41;4154190;28;20509;-64
2021/12/27 04:41:18;;;;;;;53.47;8.93;;;12.00;99.90;;;11.31;100.00;98949.81;4157712;28;20110;-64
2021/12/27 04:43:22;;;;;;;47.30;9.00;;;12.00;99.90;;;11.35;100.00;98948.41;4160290;28;20502;-65
2021/12/27 04:45:23;;;;;;;47.47;8.52;;;12.10;99.90;;;11.38;100.00;98948.78;4153254;28;20060;-64
2021/12/27 04:47:25;;;;;;;46.67;8.60;;;12.10;99.90;;;11.42;100.00;98951.81;4152893;28;20034;-65
2021/12/27 04:49:26;;;;;;;48.78;8.07;;;12.20;99.90;;;11.39;100.00;98950.41;4158421;28;20087;-64
2021/12/27 04:51:27;;;;;;;55.67;7.80;;;12.20;99.90;;;11.50;100.00;98962.16;4168459;28;20038;-64
2021/12/27 04:53:28;;;;;;;60.78;10.73;;;12.20;99.90;;;11.42;100.00;98951.81;4168355;28;20032;-64
2021/12/27 04:55:30;;;;;;;60.95;9.07;;;12.40;99.90;;;11.50;100.00;98967.44;4168145;28;20029;-65
2021/12/27 04:57:31;;;;;;;64.13;11.18;;;12.30;99.90;;;11.49;100.00;98961.38;4146015;28;20518;-64
2021/12/27 04:59:32;;;;;;;63.28;10.07;;;12.30;99.90;;;11.51;100.00;98971.72;4153182;28;20032;-64
2021/12/27 05:01:34;;;;;;;53.55;8.32;;;12.30;99.90;;;11.54;100.00;98963.38;4164191;28;20044;-64
2021/12/27 05:03:35;;;;;;;62.78;8.70;;;12.30;99.90;;;11.56;100.00;98964.00;4167816;28;20053;-65
2021/12/27 05:05:37;;;;;;;67.82;11.27;;;12.30;99.90;;;11.52;100.00;98963.63;4161026;28;20041;-64
2021/12/27 05:07:38;;;;;;;69.63;10.95;;;12.30;99.90;;;11.58;100.00;98967.25;4151790;28;20022;-64
2021/12/27 05:09:39;;;;;;;55.38;10.20;;;12.30;99.90;;;11.60;100.00;98986.34;4165211;28;20033;-64
2021/12/27 05:11:41;;;;;;;55.17;11.07;;;12.30;99.90;;;11.54;100.00;98982.69;4184542;28;20025;-64
2021/12/27 05:13:42;;;;;;;58.15;9.02;;;12.40;99.90;;;11.52;100.00;98978.63;4161189;28;20026;-64
2021/12/27 05:15:42;;;;;;;60.25;10.57;;;12.30;99.90;;;11.49;100.00;98979.03;4163020;28;20060;-64
2021/12/27 05:17:43;;;;;;;58.33;11.10;;;12.30;99.90;;;11.50;100.00;98985.94;4168888;28;20125;-64
2021/12/27 05:19:44;;;;;;;57.35;10.43;;;12.20;99.90;;;11.49;100.00;98987.78;4164902;28;20029;-64
2021/12/27 05:21:45;;;;;;;52.28;9.48;;;12.30;99.90;;;11.49;100.00;98989.59;4157873;28;20501;-64
2021/12/27 05:23:46;;;;;;;53.97;9.77;;;12.60;99.90;;;11.50;100.00;98993.84;4158136;28;20097;-64
2021/12/27 05:25:48;;;;;;;55.53;10.80;;;12.30;99.90;;;11.47;100.00;99000.34;4165468;28;20022;-64
2021/12/27 05:27:49;;;;;;;59.25;9.98;;;12.30;99.90;;;11.49;100.00;98989.59;4150938;28;20379;-64
2021/12/27 05:29:50;;;;;;;53.10;10.75;;;12.30;99.90;;;11.50;100.00;99007.06;4158844;28;20056;-64
2021/12/27 05:31:52;;;;;;;58.83;12.63;;;12.30;99.90;;;11.53;100.00;99001.38;4168969;28;20026;-64
2021/12/27 05:33:53;;;;;;;70.63;13.48;;;12.30;99.90;;;11.47;100.00;99018.84;4168611;28;20025;-64
2021/12/27 05:35:54;;;;;;;55.45;10.93;;;12.30;99.90;;;11.45;100.00;99020.06;4168929;28;20040;-64
2021/12/27 05:37:56;;;;;;;53.53;11.98;;;12.30;99.90;;;11.51;100.00;99024.53;4168870;28;20032;-64
2021/12/27 05:40:03;;;;;;;67.80;10.23;;;12.30;99.90;;;11.50;100.00;99030.81;4168865;28;20041;-64
2021/12/27 05:42:05;;;;;;;51.35;10.77;;;12.30;99.90;;;11.50;100.00;99031.63;4168563;28;20033;-64
2021/12/27 05:44:06;;;;;;;59.63;9.50;;;12.30;99.90;;;11.52;100.00;99036.72;4151058;28;20045;-64
2021/12/27 05:46:07;;;;;;;57.70;10.95;;;12.30;99.90;;;11.48;100.00;99044.25;4158055;28;20022;-64
2021/12/27 05:48:08;;;;;;;52.78;11.07;;;12.30;99.90;;;11.51;100.00;99043.00;4158278;28;20041;-64
2021/12/27 05:50:11;;;;;;;64.07;10.63;;;12.30;99.90;;;11.55;100.00;99047.69;4152230;28;20021;-64
2021/12/27 05:52:12;;;;;;;50.53;10.70;;;12.40;99.90;;;11.59;100.00;99080.59;4151269;28;20026;-64
2021/12/27 05:54:14;;;;;;;51.10;9.82;;;12.40;99.90;;;11.62;100.00;99059.06;4157708;28;20029;-64
2021/12/27 05:56:15;;;;;;;63.45;10.00;;;12.40;99.90;;;11.62;100.00;99063.53;4167457;28;20433;-64
2021/12/27 05:58:16;;;;;;;56.88;9.18;;;12.40;99.90;;;11.64;100.00;99061.50;4168594;28;20108;-64
2021/12/27 06:00:18;;;;;;;51.95;8.98;;;12.40;99.90;;;11.65;100.00;99065.75;4151141;28;20037;-64
2021/12/27 06:02:19;;;;;;;61.30;11.48;;;12.60;99.90;;;11.76;100.00;99069.66;4150878;28;20030;-64
2021/12/27 06:04:20;;;;;;;46.28;9.18;;;12.50;99.90;;;11.70;100.00;99060.72;4161716;28;20073;-64
2021/12/27 06:06:21;;;;;;;73.03;12.50;;;12.50;99.90;;;11.71;100.00;99066.84;4155399;28;20040;-64
2021/12/27 06:08:22;;;;;;;63.90;11.45;;;12.60;99.90;;;11.70;100.00;99067.84;4152298;28;20371;-64
2021/12/27 06:10:23;;;;;;;64.13;11.20;;;12.50;99.90;;;11.70;100.00;99076.56;4157266;28;20097;-64
2021/12/27 06:12:24;;;;;;;62.28;11.20;;;12.50;99.90;;;11.64;100.00;99066.78;4167198;28;20025;-64
2021/12/27 06:14:25;;;;;;;54.63;11.07;;;12.60;99.90;;;11.68;100.00;99072.50;4167299;28;20041;-64
2021/12/27 06:16:26;;;;;;;70.65;10.90;;;12.60;99.90;;;11.66;100.00;99075.31;4152821;28;20026;-64
2021/12/27 06:18:26;;;;;;;59.95;12.10;;;12.50;99.90;;;11.64;100.00;99067.63;4151928;28;20034;-64
2021/12/27 06:20:28;;;;;;;66.00;12.07;;;12.50;99.90;;;11.61;100.00;99069.84;4152114;28;20034;-64
2021/12/27 06:22:29;;;;;;;62.25;11.45;;;12.50;99.90;;;11.64;100.00;99066.78;4151253;28;20038;-64
2021/12/27 06:24:30;;;;;;;53.85;10.73;;;12.50;99.90;;;11.62;100.00;99074.09;4150852;28;20030;-64
2021/12/27 06:26:31;;;;;;;54.40;10.57;;;12.30;99.90;;;11.62;100.00;99074.91;4156954;28;20030;-64
2021/12/27 06:28:34;;;;;;;60.15;12.57;;;12.50;99.90;;;11.57;100.00;99082.63;4159049;28;20081;-64
2021/12/27 06:30:35;;;;;;;60.53;11.05;;;12.40;99.90;;;11.54;100.00;99076.94;4150813;28;20030;-64
2021/12/27 06:32:37;;;;;;;55.50;9.18;;;12.40;99.90;;;11.55;100.00;99091.78;4166689;28;20378;-64
2021/12/27 06:34:38;;;;;;;72.35;13.70;;;12.30;99.90;;;11.55;100.00;99102.34;4161999;28;20100;-64
2021/12/27 06:36:39;;;;;;;56.20;11.20;;;12.40;99.90;;;11.57;100.00;99102.94;4160267;28;20028;-64
2021/12/27 06:38:40;;;;;;;66.63;12.32;;;12.30;99.90;;;11.56;100.00;99102.13;4169968;28;20048;-64
2021/12/27 06:40:41;;;;;;;71.20;11.73;;;12.40;99.90;;;11.53;100.00;99112.28;4171468;28;20497;-64
2021/12/27 06:42:42;;;;;;;60.28;10.18;;;12.30;99.90;;;11.53;100.00;99117.56;4171635;28;20045;-64
2021/12/27 06:44:43;;;;;;;50.78;11.73;;;12.40;99.90;;;11.49;100.00;99111.88;4171532;28;20036;-64
2021/12/27 06:46:44;;;;;;;52.67;9.82;;;13.10;99.90;;;11.54;100.00;99113.91;4159299;28;20038;-64
2021/12/27 06:48:45;;;;;;;61.30;12.15;;;12.40;99.90;;;11.52;100.00;99126.50;4153590;28;20399;-64
2021/12/27 06:50:46;;;;;;;56.67;10.85;;;12.40;99.90;;;11.48;100.00;99122.63;4158197;28;20504;-64
2021/12/27 06:52:47;;;;;;;59.33;10.40;;;12.30;99.90;;;11.48;100.00;99139.28;4162868;28;20052;-64
2021/12/27 06:54:48;;;;;;;67.30;11.93;;;12.30;99.90;;;11.50;100.00;99129.34;4153707;28;20522;-64
2021/12/27 06:56:49;;;;;;;54.83;12.07;;;12.30;99.90;;;11.49;100.00;99143.56;4151141;28;20056;-64
2021/12/27 06:58:50;;;;;;;64.68;11.45;;;12.30;99.90;;;11.46;100.00;99132.59;4157880;28;20382;-64
2021/12/27 07:00:51;;;;;;;70.85;12.93;;;12.30;99.90;;;11.39;100.00;99129.94;4163954;28;20036;-64
2021/12/27 07:02:53;;;;;;;64.10;11.27;;;12.20;99.90;;;11.37;100.00;99131.16;4164043;28;20485;-64
2021/12/27 07:04:54;;;;;;;59.30;9.10;;;12.20;99.90;;;11.41;100.00;99146.38;4157187;28;20057;-64
2021/12/27 07:06:55;;;;;;;62.22;13.25;;;12.20;99.90;;;11.40;100.00;99134.22;4154789;28;20532;-64
2021/12/27 07:08:56;;;;;;;71.13;12.35;;;12.20;99.90;;;11.39;100.00;99129.13;4154813;28;20026;-64
2021/12/27 07:10:57;;;;;;;65.97;11.57;;;11.70;99.90;;;11.43;100.00;99135.63;4164679;28;20025;-64
2021/12/27 07:12:59;;;;;;;57.75;12.02;;;12.20;99.90;;;11.43;100.00;99143.56;4156647;28;20057;-64
2021/12/27 07:15:00;;;;;;;70.70;12.90;;;12.20;99.90;;;11.32;100.00;99125.66;4154829;28;20044;-64
2021/12/27 07:17:01;;;;;;;51.40;9.68;;;12.20;99.90;;;11.32;100.00;99131.75;4161304;28;20056;-64
2021/12/27 07:19:02;;;;;;;67.47;13.40;;;12.10;99.90;;;11.27;100.00;99123.63;4153160;28;20033;-64
2021/12/27 07:21:03;;;;;;;59.75;10.55;;;12.10;99.90;;;11.25;100.00;99127.47;4157080;28;20489;-64
2021/12/27 07:23:06;;;;;;;72.13;12.35;;;12.10;99.90;;;11.24;100.00;99126.66;4165829;28;20060;-64
2021/12/27 07:25:07;;;;;;;72.43;12.63;;;12.10;99.90;;;11.18;100.00;99131.91;4153405;28;20061;-64
2021/12/27 07:27:08;;;;;;;77.28;15.20;;;12.00;99.90;;;11.19;100.00;99131.72;4165618;28;20489;-64
2021/12/27 07:29:09;;;;;;;62.60;11.65;;;11.90;99.90;;;11.11;100.00;99151.16;4170734;28;20070;-64
2021/12/27 07:31:10;;;;;;;63.83;11.50;;;11.90;99.90;;;11.02;100.00;99136.53;4170943;28;20104;-64
2021/12/27 07:33:11;;;;;;;60.83;13.05;;;11.80;99.90;;;11.03;100.00;99145.25;4170607;28;20573;-64
2021/12/27 07:35:13;;;;;;;55.75;11.40;;;11.80;99.90;;;11.04;100.00;99154.81;4158678;28;20041;-64
2021/12/27 07:37:16;;;;;;;69.82;11.35;;;11.80;99.90;;;10.98;100.00;99151.16;4153108;28;20034;-64
2021/12/27 07:39:16;;;;;;;68.45;14.85;;;11.70;99.90;;;11.04;100.00;99168.81;4153197;28;20034;-64
2021/12/27 07:41:17;;;;;;;64.35;12.60;;;11.80;99.90;;;11.04;100.00;99162.72;4161894;28;20087;-64
2021/12/27 07:43:18;;;;;;;61.35;12.10;;;11.80;99.90;;;11.11;100.00;99163.53;4170704;28;20160;-64
2021/12/27 07:45:19;;;;;;;75.97;11.82;;;11.80;99.90;;;11.09;100.00;99163.75;4170554;28;20029;-64
2021/12/27 07:47:21;;;;;;;67.55;13.35;;;11.90;99.90;;;11.10;100.00;99175.97;4165391;28;20037;-64
2021/12/27 07:49:21;;;;;;;66.72;13.32;;;11.80;99.90;;;11.11;100.00;99188.13;4152675;28;20056;-64
2021/12/27 07:51:23;;;;;;;69.05;12.02;;;11.90;99.90;;;11.09;100.00;99176.97;4163990;28;20021;-64
2021/12/27 07:53:23;;;;;;;76.88;12.90;;;12.10;99.90;;;11.13;100.00;99195.84;4170416;28;20424;-64
2021/12/27 07:55:27;;;;;;;56.05;14.50;;;11.90;99.90;;;11.16;100.00;99187.53;4170600;28;20029;-64
2021/12/27 07:57:28;;;;;;;55.08;11.05;;;11.90;99.90;;;11.16;100.00;99200.75;4170630;28;20516;-64
2021/12/27 07:59:29;;;;;;;66.25;11.93;;;11.90;99.90;;;11.15;100.00;99199.09;4170476;28;20501;-64
2021/12/27 08:01:41;;;;;;;65.72;14.52;;;12.00;99.90;;;11.08;100.00;99204.34;4170434;28;20029;-64
2021/12/27 08:03:41;;;;;;;73.55;10.23;;;11.90;99.90;;;11.08;100.00;99206.16;4164185;28;20468;-64
2021/12/27 08:05:42;;;;;;;69.22;12.40;;;11.90;99.90;;;11.01;100.00;99214.06;4153721;28;20073;-65
2021/12/27 08:07:43;;;;;;;70.35;12.60;;;11.90;99.90;;;11.07;100.00;99213.28;4153869;28;20037;-64
2021/12/27 08:09:44;;;;;;;68.55;13.82;;;12.00;99.90;;;11.02;100.00;99223.59;4167175;28;20431;-64
2021/12/27 08:11:45;;;;;;;60.15;10.80;;;11.80;99.90;;;10.97;100.00;99215.47;4168886;28;20026;-64
2021/12/27 08:13:47;;;;;;;62.55;14.73;;;11.80;99.90;;;10.98;100.00;99222.38;4162279;28;20026;-64
2021/12/27 08:15:48;;;;;;;52.78;12.10;;;11.80;99.90;;;10.89;100.00;99226.19;4152449;28;20057;-64
2021/12/27 08:17:49;;;;;;;63.15;12.38;;;11.70;99.90;;;10.88;100.00;99232.47;4166601;28;20029;-64
2021/12/27 08:19:50;;;;;;;71.07;12.20;;;11.70;99.90;;;10.85;100.00;99246.03;4165810;28;20037;-64
2021/12/27 08:21:51;;;;;;;63.65;13.25;;;11.70;99.90;;;10.92;100.00;99246.09;4160116;28;20028;-64
2021/12/27 08:23:53;;;;;;;58.00;13.57;;;11.70;99.90;;;10.79;100.00;99246.00;4157749;28;20021;-64
2021/12/27 08:25:54;;;;;;;71.90;12.73;;;11.70;99.90;;;10.82;100.00;99259.63;4167459;28;20030;-64
2021/12/27 08:27:55;;;;;;;60.53;12.75;;;11.60;99.90;;;10.94;100.00;99250.16;4164592;28;20141;-64
2021/12/27 08:29:58;;;;;;;67.45;13.95;;;11.60;99.90;;;10.92;100.00;99265.38;4152335;28;20064;-64
2021/12/27 08:31:59;;;;;;;71.43;12.75;;;11.60;99.90;;;10.82;100.00;99262.25;4152116;28;20049;-64